createdAt,value
2019-02-15T00:00:50.027Z,23.03
2019-02-15T00:03:19.352Z,19.33
2019-02-15T00:05:47.494Z,20.17
2019-02-15T00:08:15.632Z,21.57
2019-02-15T00:10:43.723Z,21.07
2019-02-15T00:13:13.829Z,24.70
2019-02-15T00:15:42.295Z,21.23
2019-02-15T00:18:30.286Z,20.30
2019-02-15T00:21:08.045Z,20.13
2019-02-15T00:23:36.252Z,20.13
2019-02-15T00:26:04.366Z,20.27
2019-02-15T00:28:32.516Z,22.00
2019-02-15T00:31:00.667Z,23.03
2019-02-15T00:33:28.880Z,22.27
2019-02-15T00:35:56.989Z,21.90
2019-02-15T00:38:25.068Z,22.23
2019-02-15T00:40:53.136Z,27.13
2019-02-15T00:43:22.518Z,21.27
2019-02-15T00:46:15.929Z,20.77
2019-02-15T00:48:44.224Z,19.37
2019-02-15T00:51:30.476Z,21.97
2019-02-15T00:54:16.153Z,19.63
2019-02-15T00:56:59.634Z,22.03
2019-02-15T00:59:38.706Z,19.93
2019-02-15T01:02:32.489Z,19.03
2019-02-15T01:05:23.150Z,21.60
2019-02-15T01:08:06.286Z,23.67
2019-02-15T01:10:40.435Z,20.53
2019-02-15T01:13:11.395Z,22.87
2019-02-15T01:15:39.564Z,22.27
2019-02-15T01:18:07.667Z,21.83
2019-02-15T01:20:35.879Z,22.03
2019-02-15T01:23:04.000Z,26.93
2019-02-15T01:25:39.254Z,19.43
2019-02-15T01:28:15.854Z,21.33
2019-02-15T01:31:11.304Z,19.57
2019-02-15T01:33:58.943Z,20.80
2019-02-15T01:36:49.573Z,22.13
2019-02-15T01:39:40.259Z,21.00
2019-02-15T01:42:33.751Z,21.20
2019-02-15T01:45:24.909Z,20.77
2019-02-15T01:47:52.971Z,21.67
2019-02-15T01:50:21.101Z,22.33
2019-02-15T01:52:49.356Z,21.37
2019-02-15T01:55:17.455Z,21.47
2019-02-15T01:57:45.773Z,24.43
2019-02-15T02:00:16.184Z,21.13
2019-02-15T02:02:46.201Z,21.27
2019-02-15T02:05:14.475Z,20.97
2019-02-15T02:07:42.754Z,21.20
2019-02-15T02:10:11.237Z,21.33
2019-02-15T02:12:39.660Z,19.23
2019-02-15T02:15:09.315Z,17.57
2019-02-15T02:17:37.417Z,19.47
2019-02-15T02:20:06.120Z,18.53
2019-02-15T02:22:34.185Z,19.80
2019-02-15T02:25:03.478Z,17.40
2019-02-15T02:27:32.610Z,20.00
2019-02-15T02:30:00.657Z,17.50
2019-02-15T02:32:28.814Z,22.27
2019-02-15T02:34:56.939Z,18.17
2019-02-15T02:37:25.094Z,19.10
2019-02-15T02:39:53.225Z,19.70
2019-02-15T02:42:21.324Z,20.77
2019-02-15T02:44:50.001Z,17.17
2019-02-15T02:47:18.394Z,17.83
2019-02-15T02:49:46.504Z,20.30
2019-02-15T02:52:14.582Z,17.80
2019-02-15T02:54:42.662Z,20.90
2019-02-15T02:57:10.732Z,18.43
2019-02-15T02:59:38.751Z,18.73
2019-02-15T03:02:06.956Z,21.67
2019-02-15T03:04:35.176Z,16.63
2019-02-15T03:07:03.389Z,18.30
2019-02-15T03:09:31.627Z,17.20
2019-02-15T03:11:59.869Z,17.63
2019-02-15T03:14:28.058Z,17.10
2019-02-15T03:16:56.168Z,17.33
2019-02-15T03:19:24.279Z,17.50
2019-02-15T03:21:52.394Z,18.53
2019-02-15T03:24:20.625Z,18.73
2019-02-15T03:26:48.686Z,16.77
2019-02-15T03:29:16.789Z,17.20
2019-02-15T03:31:44.927Z,15.63
2019-02-15T03:34:13.210Z,18.93
2019-02-15T03:37:04.947Z,19.73
2019-02-15T03:39:48.596Z,20.47
2019-02-15T03:42:17.184Z,20.00
2019-02-15T03:44:45.292Z,16.17
2019-02-15T03:47:19.800Z,19.10
2019-02-15T03:49:48.166Z,20.17
2019-02-15T03:52:16.335Z,18.47
2019-02-15T03:54:44.520Z,19.30
2019-02-15T03:57:12.596Z,20.83
2019-02-15T03:59:40.745Z,16.80
2019-02-15T04:02:08.836Z,18.67
2019-02-15T04:04:36.954Z,19.07
2019-02-15T04:07:05.242Z,20.23
2019-02-15T04:09:33.404Z,20.27
2019-02-15T04:12:01.478Z,20.07
2019-02-15T04:14:32.773Z,22.07
2019-02-15T04:16:59.598Z,19.93
2019-02-15T04:19:27.772Z,19.80
2019-02-15T04:21:55.846Z,18.63
2019-02-15T04:24:23.987Z,18.03
2019-02-15T04:26:52.007Z,18.23
2019-02-15T04:29:20.302Z,17.67
2019-02-15T04:31:48.448Z,19.13
2019-02-15T04:34:16.626Z,21.47
2019-02-15T04:36:44.785Z,17.73
2019-02-15T04:39:12.872Z,19.63
2019-02-15T04:41:40.932Z,17.97
2019-02-15T04:44:09.023Z,20.53
2019-02-15T04:46:37.302Z,19.53
2019-02-15T04:49:05.719Z,17.90
2019-02-15T04:51:34.299Z,16.93
2019-02-15T04:54:02.533Z,20.03
2019-02-15T04:56:30.512Z,23.07
2019-02-15T04:58:58.820Z,23.23
2019-02-15T05:01:27.145Z,20.70
2019-02-15T05:03:55.274Z,23.37
2019-02-15T05:06:23.396Z,24.03
2019-02-15T05:08:51.397Z,20.70
2019-02-15T05:11:19.439Z,23.00
2019-02-15T05:13:47.497Z,20.37
2019-02-15T05:16:15.516Z,25.10
2019-02-15T05:18:43.735Z,23.07
2019-02-15T05:21:12.842Z,24.20
2019-02-15T05:23:41.129Z,24.90
2019-02-15T05:26:09.253Z,24.30
2019-02-15T05:28:37.963Z,20.27
2019-02-15T05:31:06.194Z,24.67
2019-02-15T05:33:35.655Z,21.00
2019-02-15T05:36:03.845Z,22.83
2019-02-15T05:38:31.913Z,23.63
2019-02-15T05:41:00.071Z,23.40
2019-02-15T05:43:28.313Z,27.83
2019-02-15T05:45:56.433Z,22.87
2019-02-15T05:48:24.891Z,20.13
2019-02-15T05:50:52.974Z,22.27
2019-02-15T05:53:21.040Z,22.33
2019-02-15T05:55:49.134Z,24.90
2019-02-15T05:58:17.392Z,24.20
2019-02-15T06:00:45.585Z,27.47
2019-02-15T06:03:13.936Z,25.63
2019-02-15T06:05:42.019Z,26.77
2019-02-15T06:08:10.200Z,30.43
2019-02-15T06:10:38.524Z,31.17
2019-02-15T06:13:06.715Z,24.67
2019-02-15T06:15:34.808Z,26.50
2019-02-15T06:18:03.119Z,25.03
2019-02-15T06:20:31.309Z,29.93
2019-02-15T06:22:59.508Z,25.50
2019-02-15T06:25:27.551Z,33.93
2019-02-15T06:27:55.676Z,30.97
2019-02-15T06:30:23.852Z,34.83
2019-02-15T06:32:51.938Z,28.43
2019-02-15T06:35:20.054Z,32.37
2019-02-15T06:37:48.222Z,31.90
2019-02-15T06:40:16.503Z,33.20
2019-02-15T06:42:44.552Z,27.87
2019-02-15T06:45:12.702Z,29.63
2019-02-15T06:47:40.870Z,28.00
2019-02-15T06:50:09.082Z,32.30
2019-02-15T06:52:38.386Z,34.67
2019-02-15T06:55:06.528Z,34.90
2019-02-15T06:57:34.824Z,33.33
2019-02-15T07:00:22.250Z,38.90
2019-02-15T07:03:18.672Z,41.20
2019-02-15T07:05:47.056Z,36.57
2019-02-15T07:08:15.249Z,37.73
2019-02-15T07:10:43.335Z,33.73
2019-02-15T07:13:11.439Z,38.00
2019-02-15T07:15:39.818Z,35.10
2019-02-15T07:18:08.027Z,30.20
2019-02-15T07:20:36.263Z,30.40
2019-02-15T07:23:04.498Z,30.93
2019-02-15T07:25:32.689Z,29.43
2019-02-15T07:28:00.795Z,30.57
2019-02-15T07:30:28.864Z,31.00
2019-02-15T07:32:57.026Z,32.63
2019-02-15T07:35:25.131Z,27.83
2019-02-15T07:37:53.315Z,35.00
2019-02-15T07:40:21.427Z,33.07
2019-02-15T07:42:49.554Z,27.90
2019-02-15T07:45:18.260Z,24.93
2019-02-15T07:47:46.632Z,29.77
2019-02-15T07:50:14.738Z,25.47
2019-02-15T07:52:43.005Z,23.63
2019-02-15T07:55:11.329Z,26.67
2019-02-15T07:57:39.459Z,28.20
2019-02-15T08:00:10.695Z,32.20
2019-02-15T08:02:39.087Z,25.27
2019-02-15T08:05:07.779Z,26.97
2019-02-15T08:07:35.846Z,25.20
2019-02-15T08:10:04.532Z,30.60
2019-02-15T08:12:32.997Z,27.43
2019-02-15T08:15:01.223Z,27.63
2019-02-15T08:17:29.412Z,25.07
2019-02-15T08:19:57.601Z,23.23
2019-02-15T08:22:26.012Z,29.33
2019-02-15T08:24:54.220Z,22.60
2019-02-15T08:27:22.745Z,25.97
2019-02-15T08:29:51.115Z,19.70
2019-02-15T08:32:19.314Z,22.40
2019-02-15T08:34:47.751Z,24.90
2019-02-15T08:37:15.931Z,24.37
2019-02-15T08:39:44.030Z,24.17
2019-02-15T08:42:12.114Z,28.37
2019-02-15T08:44:40.261Z,22.83
2019-02-15T08:47:08.265Z,23.10
2019-02-15T08:49:36.428Z,23.43
2019-02-15T08:52:04.539Z,19.17
2019-02-15T08:54:32.632Z,18.20
2019-02-15T08:57:00.748Z,23.10
2019-02-15T08:59:28.806Z,22.50
2019-02-15T09:02:19.383Z,23.33
2019-02-15T09:04:47.745Z,20.83
2019-02-15T09:07:16.873Z,17.93
2019-02-15T09:09:44.967Z,23.23
2019-02-15T09:12:13.167Z,21.70
2019-02-15T09:14:41.451Z,18.63
2019-02-15T09:17:09.549Z,23.73
2019-02-15T09:19:37.681Z,21.53
2019-02-15T09:22:05.862Z,17.63
2019-02-15T09:24:35.058Z,22.27
2019-02-15T09:27:21.412Z,19.23
2019-02-15T09:29:49.661Z,18.73
2019-02-15T09:32:17.926Z,27.07
2019-02-15T09:34:46.019Z,18.90
2019-02-15T09:37:14.115Z,23.43
2019-02-15T09:39:42.259Z,20.87
2019-02-15T09:42:10.467Z,20.43
2019-02-15T09:44:38.533Z,17.93
2019-02-15T09:47:06.577Z,20.07
2019-02-15T09:49:34.607Z,18.67
2019-02-15T09:52:02.832Z,15.63
2019-02-15T09:54:30.949Z,16.33
2019-02-15T09:56:59.032Z,20.37
2019-02-15T09:59:27.171Z,15.40
2019-02-15T10:01:55.260Z,13.73
2019-02-15T10:04:23.595Z,17.20
2019-02-15T10:06:51.755Z,18.07
2019-02-15T10:09:19.881Z,16.50
2019-02-15T10:11:47.978Z,21.17
2019-02-15T10:14:16.035Z,18.90
2019-02-15T10:16:44.245Z,21.73
2019-02-15T10:19:12.352Z,26.43
2019-02-15T10:21:42.043Z,16.23
2019-02-15T10:24:10.213Z,20.00
2019-02-15T10:26:38.284Z,21.60
2019-02-15T10:29:06.373Z,17.57
2019-02-15T10:31:34.552Z,16.27
2019-02-15T10:34:02.721Z,16.60
2019-02-15T10:36:30.990Z,18.43
2019-02-15T10:38:59.073Z,14.47
2019-02-15T10:41:27.122Z,15.17
2019-02-15T10:43:55.185Z,17.00
2019-02-15T10:46:23.333Z,14.23
2019-02-15T10:48:51.491Z,14.77
2019-02-15T10:51:19.644Z,13.80
2019-02-15T10:53:50.213Z,20.87
2019-02-15T10:56:18.264Z,15.23
2019-02-15T10:58:46.291Z,17.43
2019-02-15T11:01:15.441Z,21.70
2019-02-15T11:03:43.619Z,17.63
2019-02-15T11:06:11.799Z,16.17
2019-02-15T11:08:39.894Z,13.30
2019-02-15T11:11:08.158Z,13.23
2019-02-15T11:13:36.376Z,14.80
2019-02-15T11:16:05.400Z,16.73
2019-02-15T11:18:33.531Z,12.30
2019-02-15T11:21:01.777Z,16.97
2019-02-15T11:23:29.910Z,13.30
2019-02-15T11:25:57.921Z,13.27
2019-02-15T11:28:26.014Z,12.77
2019-02-15T11:30:54.457Z,13.40
2019-02-15T11:33:22.801Z,17.83
2019-02-15T11:35:51.021Z,16.17
2019-02-15T11:38:19.446Z,11.93
2019-02-15T11:40:47.681Z,13.83
2019-02-15T11:43:15.845Z,15.47
2019-02-15T11:45:43.933Z,16.13
2019-02-15T11:48:12.170Z,19.63
2019-02-15T11:50:40.250Z,16.57
2019-02-15T11:53:08.390Z,18.93
2019-02-15T11:55:36.538Z,16.60
2019-02-15T11:58:05.747Z,13.60
2019-02-15T12:00:34.726Z,19.00
2019-02-15T12:03:03.366Z,18.60
2019-02-15T12:05:31.728Z,15.53
2019-02-15T12:08:00.028Z,16.37
2019-02-15T12:10:28.325Z,12.33
2019-02-15T12:12:56.409Z,12.83
2019-02-15T12:15:24.624Z,17.87
2019-02-15T12:17:52.650Z,14.30
2019-02-15T12:20:20.914Z,17.17
2019-02-15T12:22:49.043Z,16.50
2019-02-15T12:25:17.153Z,12.37
2019-02-15T12:27:45.715Z,18.70
2019-02-15T12:30:13.861Z,13.30
2019-02-15T12:32:41.997Z,16.17
2019-02-15T12:35:10.196Z,15.40
2019-02-15T12:37:38.347Z,13.47
2019-02-15T12:40:06.448Z,15.40
2019-02-15T12:42:34.675Z,17.90
2019-02-15T12:45:03.156Z,16.60
2019-02-15T12:47:31.571Z,16.93
2019-02-15T12:49:59.590Z,11.03
2019-02-15T12:52:27.744Z,13.53
2019-02-15T12:54:55.888Z,12.77
2019-02-15T12:57:24.157Z,14.17
2019-02-15T12:59:52.298Z,14.00
2019-02-15T13:02:20.474Z,18.73
2019-02-15T13:04:50.003Z,13.27
2019-02-15T13:07:18.457Z,14.10
2019-02-15T13:09:46.599Z,13.63
2019-02-15T13:12:17.750Z,15.67
2019-02-15T13:14:46.024Z,10.20
2019-02-15T13:17:14.204Z,11.57
2019-02-15T13:19:42.308Z,8.63
2019-02-15T13:22:10.602Z,10.87
2019-02-15T13:24:38.659Z,9.37
2019-02-15T13:27:07.155Z,12.37
2019-02-15T13:29:35.416Z,9.63
2019-02-15T13:32:03.666Z,10.07
2019-02-15T13:34:33.975Z,8.67
2019-02-15T13:37:02.126Z,9.60
2019-02-15T13:39:30.715Z,10.97
2019-02-15T13:41:58.788Z,8.17
2019-02-15T13:44:29.147Z,10.40
2019-02-15T13:46:57.302Z,7.50
2019-02-15T13:49:25.959Z,11.40
2019-02-15T13:51:54.347Z,8.73
2019-02-15T13:54:22.471Z,8.30
2019-02-15T13:56:51.055Z,7.77
2019-02-15T13:59:19.310Z,8.87
2019-02-15T14:01:47.454Z,7.10
2019-02-15T14:04:15.778Z,5.97
2019-02-15T14:06:54.706Z,6.57
2019-02-15T14:09:23.028Z,5.50
2019-02-15T14:11:51.252Z,8.63
2019-02-15T14:14:21.690Z,8.87
2019-02-15T14:16:49.782Z,5.10
2019-02-15T14:19:17.826Z,5.40
2019-02-15T14:21:46.171Z,6.70
2019-02-15T14:24:14.288Z,5.80
2019-02-15T14:26:42.873Z,8.97
2019-02-15T14:29:10.966Z,6.17
2019-02-15T14:31:39.186Z,8.07
2019-02-15T14:34:07.380Z,11.33
2019-02-15T14:36:35.510Z,6.00
2019-02-15T14:39:07.409Z,5.87
2019-02-15T14:41:35.639Z,5.30
2019-02-15T14:44:03.906Z,5.40
2019-02-15T14:46:31.944Z,7.97
2019-02-15T14:49:00.217Z,7.93
2019-02-15T14:51:28.375Z,8.13
2019-02-15T14:53:56.449Z,9.30
2019-02-15T14:56:24.732Z,10.47
2019-02-15T14:58:52.899Z,8.40
2019-02-15T15:01:20.975Z,10.53
2019-02-15T15:03:49.099Z,7.07
2019-02-15T15:06:17.539Z,10.67
2019-02-15T15:08:45.587Z,8.37
2019-02-15T15:11:13.713Z,5.30
2019-02-15T15:13:41.833Z,7.47
2019-02-15T15:16:09.915Z,7.00
2019-02-15T15:18:38.140Z,7.70
2019-02-15T15:21:06.287Z,4.70
2019-02-15T15:23:34.338Z,8.43
2019-02-15T15:26:11.378Z,5.33
2019-02-15T15:28:32.474Z,8.07
2019-02-15T15:31:00.546Z,4.47
2019-02-15T15:33:28.803Z,5.60
2019-02-15T15:35:57.186Z,5.53
2019-02-15T15:38:25.377Z,6.10
2019-02-15T15:40:53.493Z,6.13
2019-02-15T15:43:21.605Z,5.63
2019-02-15T15:45:49.701Z,3.73
2019-02-15T15:48:22.694Z,3.50
2019-02-15T15:50:48.131Z,3.97
2019-02-15T15:53:16.236Z,2.77
2019-02-15T15:55:44.333Z,2.77
2019-02-15T15:58:12.445Z,4.63
2019-02-15T16:00:40.613Z,6.10
2019-02-15T16:03:08.705Z,3.00
2019-02-15T16:05:36.875Z,4.93
2019-02-15T16:08:05.135Z,6.73
2019-02-15T16:10:33.219Z,8.67
2019-02-15T16:13:01.316Z,4.27
2019-02-15T16:15:29.840Z,9.97
2019-02-15T16:17:58.043Z,6.33
2019-02-15T16:20:26.340Z,7.07
2019-02-15T16:22:54.660Z,5.93
2019-02-15T16:25:22.753Z,5.50
2019-02-15T16:27:50.776Z,6.23
2019-02-15T16:30:19.269Z,6.80
2019-02-15T16:32:47.408Z,6.10
2019-02-15T16:35:15.535Z,9.07
2019-02-15T16:37:43.647Z,9.77
2019-02-15T16:40:12.305Z,5.20
2019-02-15T16:42:40.516Z,6.60
2019-02-15T16:45:12.627Z,7.80
2019-02-15T16:47:41.023Z,9.47
2019-02-15T16:50:10.425Z,7.47
2019-02-15T16:52:38.776Z,8.33
2019-02-15T16:55:12.688Z,7.97
2019-02-15T16:57:38.584Z,7.27
2019-02-15T17:00:06.983Z,7.67
2019-02-15T17:02:36.727Z,12.73
2019-02-15T17:05:05.265Z,9.67
2019-02-15T17:07:33.501Z,8.63
2019-02-15T17:10:01.727Z,6.70
2019-02-15T17:12:29.874Z,8.10
2019-02-15T17:14:57.941Z,7.87
2019-02-15T17:17:26.211Z,8.93
2019-02-15T17:19:54.368Z,7.67
2019-02-15T17:22:22.965Z,13.67
2019-02-15T17:24:51.363Z,13.27
2019-02-15T17:27:19.823Z,16.97
2019-02-15T17:29:48.186Z,11.97
2019-02-15T17:32:16.336Z,18.07
2019-02-15T17:34:44.364Z,17.97
2019-02-15T17:37:12.481Z,15.53
2019-02-15T17:39:40.715Z,10.67
2019-02-15T17:42:08.836Z,10.67
2019-02-15T17:44:37.021Z,9.70
2019-02-15T17:47:05.211Z,9.40
2019-02-15T17:49:33.397Z,12.83
2019-02-15T17:52:02.614Z,10.40
2019-02-15T17:54:30.819Z,7.93
2019-02-15T17:56:59.150Z,11.83
2019-02-15T17:59:27.273Z,9.00
2019-02-15T18:01:55.489Z,7.63
2019-02-15T18:04:23.877Z,11.20
2019-02-15T18:06:52.657Z,7.63
2019-02-15T18:09:20.971Z,7.13
2019-02-15T18:11:49.812Z,9.23
2019-02-15T18:14:18.704Z,6.83
2019-02-15T18:16:46.955Z,10.37
2019-02-15T18:19:15.251Z,6.37
2019-02-15T18:21:43.384Z,9.40
2019-02-15T18:24:11.541Z,9.33
2019-02-15T18:26:39.772Z,7.23
2019-02-15T18:29:07.824Z,10.50
2019-02-15T18:31:36.061Z,11.73
2019-02-15T18:34:04.201Z,7.60
2019-02-15T18:36:33.294Z,10.33
2019-02-15T18:39:01.424Z,11.03
2019-02-15T18:41:31.410Z,11.27
2019-02-15T18:43:59.526Z,10.67
2019-02-15T18:46:27.615Z,9.97
2019-02-15T18:48:55.773Z,12.83
2019-02-15T18:51:25.067Z,16.70
2019-02-15T18:53:53.190Z,12.10
2019-02-15T18:56:21.938Z,12.70
2019-02-15T18:58:50.252Z,12.40
2019-02-15T19:01:18.658Z,19.53
2019-02-15T19:03:46.782Z,16.33
2019-02-15T19:06:14.970Z,10.90
2019-02-15T19:08:43.360Z,13.20
2019-02-15T19:11:11.439Z,12.43
2019-02-15T19:13:39.513Z,13.30
2019-02-15T19:16:07.661Z,12.13
2019-02-15T19:18:35.798Z,11.83
2019-02-15T19:21:04.169Z,10.80
2019-02-15T19:23:32.467Z,11.30
2019-02-15T19:26:01.723Z,12.63
2019-02-15T19:28:30.186Z,10.50
2019-02-15T19:30:58.230Z,10.03
2019-02-15T19:33:26.270Z,11.23
2019-02-15T19:35:54.339Z,9.23
2019-02-15T19:38:22.663Z,10.87
2019-02-15T19:40:50.746Z,20.37
2019-02-15T19:43:18.757Z,14.37
2019-02-15T19:45:48.162Z,10.87
2019-02-15T19:48:16.204Z,10.60
2019-02-15T19:50:44.377Z,12.77
2019-02-15T19:53:12.458Z,10.03
2019-02-15T19:55:40.595Z,7.80
2019-02-15T19:58:08.742Z,10.90
2019-02-15T20:00:36.916Z,8.73
2019-02-15T20:03:05.101Z,10.10
2019-02-15T20:05:33.168Z,9.70
2019-02-15T20:08:01.386Z,8.97
2019-02-15T20:10:29.604Z,11.83
2019-02-15T20:12:57.734Z,12.00
2019-02-15T20:15:25.753Z,9.23
2019-02-15T20:17:53.910Z,9.87
2019-02-15T20:20:22.052Z,9.03
2019-02-15T20:22:50.198Z,10.97
2019-02-15T20:25:18.351Z,8.93
2019-02-15T20:27:46.506Z,8.30
2019-02-15T20:30:18.182Z,12.90
2019-02-15T20:32:46.369Z,11.10
2019-02-15T20:35:14.475Z,8.77
2019-02-15T20:37:42.575Z,10.27
2019-02-15T20:40:10.729Z,10.77
2019-02-15T20:42:38.835Z,10.07
2019-02-15T20:45:11.409Z,11.77
2019-02-15T20:47:40.450Z,9.07
2019-02-15T20:50:09.122Z,10.17
2019-02-15T20:52:37.180Z,11.23
2019-02-15T20:55:07.094Z,11.03
2019-02-15T20:57:35.276Z,10.80
2019-02-15T21:00:04.717Z,8.67
2019-02-15T21:02:32.779Z,9.70
2019-02-15T21:05:01.310Z,13.20
2019-02-15T21:07:29.440Z,9.70
2019-02-15T21:09:58.158Z,12.93
2019-02-15T21:12:26.472Z,12.07
2019-02-15T21:14:54.613Z,11.10
2019-02-15T21:17:22.782Z,12.27
2019-02-15T21:19:51.165Z,18.10
2019-02-15T21:22:19.397Z,12.83
2019-02-15T21:24:47.465Z,11.70
2019-02-15T21:27:15.691Z,14.53
2019-02-15T21:29:43.913Z,13.93
2019-02-15T21:32:12.072Z,14.27
2019-02-15T21:34:40.289Z,15.47
2019-02-15T21:37:08.491Z,12.80
2019-02-15T21:39:36.654Z,13.30
2019-02-15T21:42:04.743Z,13.90
2019-02-15T21:44:32.749Z,14.33
2019-02-15T21:47:00.882Z,11.13
2019-02-15T21:49:28.933Z,15.47
2019-02-15T21:51:57.073Z,16.33
2019-02-15T21:54:25.165Z,17.70
2019-02-15T21:56:53.253Z,13.07
2019-02-15T21:59:21.405Z,14.93
2019-02-15T22:01:49.563Z,12.90
2019-02-15T22:04:17.632Z,11.57
2019-02-15T22:06:45.660Z,11.60
2019-02-15T22:09:14.031Z,16.93
2019-02-15T22:11:42.056Z,13.77
2019-02-15T22:14:10.265Z,12.70
2019-02-15T22:16:38.406Z,10.50
2019-02-15T22:19:06.513Z,11.40
2019-02-15T22:21:34.765Z,11.13
2019-02-15T22:24:03.014Z,9.73
2019-02-15T22:26:31.313Z,8.57
2019-02-15T22:28:59.427Z,8.23
2019-02-15T22:31:27.531Z,11.97
2019-02-15T22:33:55.574Z,13.50
2019-02-15T22:36:23.638Z,10.73
2019-02-15T22:38:51.664Z,10.30
2019-02-15T22:41:19.752Z,10.83
2019-02-15T22:43:48.140Z,11.27
2019-02-15T22:46:16.284Z,10.57
2019-02-15T22:48:44.363Z,9.83
2019-02-15T22:51:12.544Z,10.50
2019-02-15T22:53:40.832Z,13.63
2019-02-15T22:56:08.933Z,11.93
2019-02-15T22:58:37.097Z,12.83
2019-02-15T23:01:10.516Z,12.23
2019-02-15T23:03:38.564Z,9.90
2019-02-15T23:06:06.787Z,9.50
2019-02-15T23:08:34.877Z,10.20
2019-02-15T23:11:05.633Z,9.80
2019-02-15T23:13:33.821Z,11.20
2019-02-15T23:16:03.961Z,8.33
2019-02-15T23:18:32.134Z,8.30
2019-02-15T23:21:00.343Z,8.70
2019-02-15T23:23:28.621Z,5.77
2019-02-15T23:25:56.813Z,10.57
2019-02-15T23:28:25.082Z,8.67
2019-02-15T23:30:53.867Z,7.23
2019-02-15T23:33:22.098Z,8.10
2019-02-15T23:35:50.152Z,6.30
2019-02-15T23:38:18.543Z,7.83
2019-02-15T23:40:48.570Z,7.87
2019-02-15T23:43:16.599Z,6.23
2019-02-15T23:45:45.128Z,6.90
2019-02-15T23:48:13.487Z,8.50
2019-02-15T23:50:41.609Z,6.77
2019-02-15T23:53:09.674Z,6.90
2019-02-15T23:55:37.743Z,6.63
2019-02-15T23:58:05.874Z,8.43
